Huvudsida
METAR-TAF:

METAR-TAF

Flygplatser :

Tan Son Nhat internationella flygplats

Ho Chi Minh-staden, Vietnam

latitud: 10-49N, longitud: 106-40E, höjd: 19 m

Aktuellt väderrapport

Denna rapport gjordes för 22 minuter sedan, klockan 11:30 UTC
Vind 6 kt från väst
Temperatur 30°C
Fuktighet 75%
Tryck 1007 hPa
Sikt 10 km eller mer
Spridda moln på en höjd av 1700 ft

METAR: VVTS 251130Z 28006KT 9999 SCT017 30/25 Q1007 NOSIG

Tid: 18:52 (11:52 UTC)

Väderprognos

Denna rapport gjordes för 52 minuter sedan, klockan 11:00 UTC
Prognos gäller från 25 kl. 12 UTC till 26 kl. 18 UTC
Vind 7 kt från väst
Sikt 10 km eller mer
Spridda moln på en höjd av 1700 ft
Temporärt
från 26 kl. 07 UTC till 26 kl. 12 UTC
Brutna moln på en höjd av 1300 ft
Spridda moln på en höjd av 1500 ft, Cumulonimbus.
åska

TAF: VVTS 251100Z 2512/2618 28007KT 9999 SCT017 TEMPO 2607/2612 TS BKN013 SCT015CB

Aktuella väderrapporter och prognoser från 4000 flygplatser (METAR- och TAF-rapporter).

De tillgängliga stationerna syns som gula och röda prickar på kartan.

För musen över prickarna för att se namnen på stationerna.

Klicka sedan för att få väderrapporter och prognoser.

För att ändra kartan: Klicka på de gröna knapparna med ett svart kors på för att zooma in; den gröna knappen med ett streck på för att zooma ut; eller på de gröna pilarna för angränsande kartor.


METAR-TAF: